createdAt,value
2019-04-06T00:02:32.843Z,20.27
2019-04-06T00:05:03.560Z,18.90
2019-04-06T00:07:46.560Z,18.57
2019-04-06T00:10:16.448Z,20.67
2019-04-06T00:12:46.492Z,19.50
2019-04-06T00:15:16.294Z,19.27
2019-04-06T00:18:12.319Z,20.07
2019-04-06T00:20:42.044Z,20.13
2019-04-06T00:23:11.768Z,20.77
2019-04-06T00:25:44.757Z,20.70
2019-04-06T00:28:13.090Z,21.30
2019-04-06T00:30:59.684Z,19.50
2019-04-06T00:33:29.411Z,19.90
2019-04-06T00:35:59.155Z,21.23
2019-04-06T00:38:36.706Z,21.27
2019-04-06T00:41:06.432Z,19.27
2019-04-06T00:43:36.193Z,20.70
2019-04-06T00:46:06.151Z,20.00
2019-04-06T00:48:41.031Z,22.60
2019-04-06T00:51:11.014Z,20.57
2019-04-06T00:53:40.745Z,21.10
2019-04-06T00:56:10.516Z,21.53
2019-04-06T00:58:40.902Z,22.07
2019-04-06T01:01:10.631Z,21.20
2019-04-06T01:03:40.358Z,19.47
2019-04-06T01:06:10.339Z,20.90
2019-04-06T01:08:40.087Z,22.27
2019-04-06T01:11:09.877Z,20.70
2019-04-06T01:13:42.247Z,21.77
2019-04-06T01:16:12.020Z,22.43
2019-04-06T01:18:41.742Z,22.90
2019-04-06T01:21:11.649Z,22.27
2019-04-06T01:23:41.452Z,23.10
2019-04-06T01:26:11.302Z,23.00
2019-04-06T01:28:47.054Z,25.17
2019-04-06T01:31:16.874Z,25.10
2019-04-06T01:33:46.623Z,25.07
2019-04-06T01:36:16.463Z,23.57
2019-04-06T01:38:46.183Z,25.40
2019-04-06T01:41:15.894Z,26.57
2019-04-06T01:43:45.765Z,23.60
2019-04-06T01:46:15.445Z,26.20
2019-04-06T01:48:45.231Z,26.87
2019-04-06T01:51:15.100Z,26.57
2019-04-06T01:54:14.918Z,26.90
2019-04-06T01:56:44.674Z,23.63
2019-04-06T01:59:14.365Z,25.57
2019-04-06T02:02:06.651Z,25.43
2019-04-06T02:04:36.399Z,25.90
2019-04-06T02:07:06.100Z,25.70
2019-04-06T02:09:35.863Z,26.30
2019-04-06T02:12:23.293Z,27.40
2019-04-06T02:14:53.165Z,25.27
2019-04-06T02:17:22.985Z,27.40
2019-04-06T02:19:52.717Z,26.50
2019-04-06T02:22:23.294Z,28.10
2019-04-06T02:24:52.974Z,26.10
2019-04-06T02:27:26.783Z,26.90
2019-04-06T02:30:27.681Z,27.90
2019-04-06T02:36:10.423Z,27.70
2019-04-06T02:39:07.534Z,30.30
2019-04-06T02:42:02.187Z,26.70
2019-04-06T02:44:32.758Z,28.47
2019-04-06T02:47:02.459Z,28.03
2019-04-06T02:49:32.169Z,28.30
2019-04-06T02:52:02.027Z,31.33
2019-04-06T02:54:59.971Z,30.23
2019-04-06T02:57:29.825Z,31.87
2019-04-06T02:59:59.580Z,31.23
2019-04-06T03:02:29.392Z,32.07
2019-04-06T03:05:04.074Z,29.07
2019-04-06T03:07:33.879Z,30.73
2019-04-06T03:10:03.699Z,32.03
2019-04-06T03:12:34.434Z,31.97
2019-04-06T03:15:04.701Z,30.90
2019-04-06T03:17:34.725Z,32.30
2019-04-06T03:20:04.977Z,31.27
2019-04-06T03:22:34.661Z,34.23
2019-04-06T03:25:04.532Z,31.40
2019-04-06T03:27:34.374Z,32.43
2019-04-06T03:30:11.748Z,33.40
2019-04-06T03:32:41.691Z,32.60
2019-04-06T03:35:11.660Z,34.30
2019-04-06T03:37:41.541Z,32.60
2019-04-06T03:41:07.803Z,36.13
2019-04-06T03:43:37.590Z,34.67
2019-04-06T03:46:07.466Z,34.40
2019-04-06T03:48:38.084Z,34.90
2019-04-06T03:51:15.780Z,34.50
2019-04-06T03:53:45.825Z,33.60
2019-04-06T03:56:15.535Z,34.20
2019-04-06T03:58:45.248Z,32.13
2019-04-06T04:01:15.259Z,34.07
2019-04-06T04:03:44.967Z,31.43
2019-04-06T04:06:23.486Z,33.50
2019-04-06T04:08:53.359Z,33.50
2019-04-06T04:11:23.165Z,32.90
2019-04-06T04:13:53.192Z,31.10
2019-04-06T04:16:30.892Z,30.47
2019-04-06T04:19:01.139Z,31.47
2019-04-06T04:21:31.043Z,30.70
2019-04-06T04:24:00.795Z,32.13
2019-04-06T04:26:30.766Z,31.57
2019-04-06T04:29:00.477Z,31.73
2019-04-06T04:31:31.979Z,31.93
2019-04-06T04:34:01.952Z,30.43
2019-04-06T04:36:31.765Z,31.67
2019-04-06T04:39:01.611Z,32.83
2019-04-06T04:41:31.365Z,32.20
2019-04-06T04:44:04.295Z,33.20
2019-04-06T04:46:32.497Z,29.70
2019-04-06T04:49:02.346Z,31.53
2019-04-06T04:51:32.212Z,32.47
2019-04-06T04:54:06.802Z,32.97
2019-04-06T04:56:36.504Z,30.33
2019-04-06T04:59:06.197Z,29.97
2019-04-06T05:01:36.102Z,33.20
2019-04-06T05:04:07.130Z,29.90
2019-04-06T05:06:36.814Z,31.07
2019-04-06T05:09:08.161Z,31.77
2019-04-06T05:11:38.370Z,30.07
2019-04-06T05:14:43.454Z,31.73
2019-04-06T05:17:21.788Z,28.30
2019-04-06T05:19:51.650Z,29.93
2019-04-06T05:22:21.458Z,29.97
2019-04-06T05:24:51.257Z,28.27
2019-04-06T05:27:28.849Z,29.67
2019-04-06T05:29:58.660Z,29.80
2019-04-06T05:32:28.447Z,28.10
2019-04-06T05:34:58.546Z,29.90
2019-04-06T05:37:28.487Z,29.73
2019-04-06T05:39:58.201Z,29.30
2019-04-06T05:42:37.877Z,31.27
2019-04-06T05:45:08.442Z,29.50
2019-04-06T05:47:38.155Z,29.30
2019-04-06T05:50:08.339Z,32.57
2019-04-06T05:52:38.074Z,31.10
2019-04-06T05:55:07.934Z,29.97
2019-04-06T05:57:38.058Z,30.77
2019-04-06T06:00:40.164Z,31.50
2019-04-06T06:03:10.721Z,31.00
2019-04-06T06:05:41.244Z,30.47
2019-04-06T06:08:11.026Z,30.20
2019-04-06T06:10:45.536Z,29.83
2019-04-06T06:13:15.306Z,32.20
2019-04-06T06:15:45.214Z,31.80
2019-04-06T06:18:25.421Z,31.83
2019-04-06T06:20:48.393Z,34.23
2019-04-06T06:23:18.136Z,31.43
2019-04-06T06:25:48.075Z,31.03
2019-04-06T06:28:19.415Z,31.90
2019-04-06T06:30:49.250Z,30.73
2019-04-06T06:33:19.235Z,32.50
2019-04-06T06:35:48.946Z,31.90
2019-04-06T06:38:19.278Z,34.20
2019-04-06T06:40:49.135Z,34.30
2019-04-06T06:43:19.074Z,32.47
2019-04-06T06:45:48.997Z,33.50
2019-04-06T06:48:18.850Z,33.27
2019-04-06T06:50:48.550Z,33.57
2019-04-06T06:53:19.626Z,34.07
2019-04-06T06:55:49.459Z,31.43
2019-04-06T06:58:25.063Z,31.47
2019-04-06T07:00:50.664Z,34.93
2019-04-06T07:03:20.683Z,32.80
2019-04-06T07:05:50.426Z,33.97
2019-04-06T07:08:32.659Z,35.30
2019-04-06T07:11:02.765Z,37.10
2019-04-06T07:13:32.550Z,34.67
2019-04-06T07:16:02.903Z,36.10
2019-04-06T07:18:32.840Z,36.27
2019-04-06T07:21:02.727Z,32.40
2019-04-06T07:23:32.658Z,33.70
2019-04-06T07:26:02.518Z,33.57
2019-04-06T07:28:38.109Z,31.30
2019-04-06T07:31:03.870Z,33.50
2019-04-06T07:33:33.629Z,35.27
2019-04-06T07:36:03.348Z,33.87
2019-04-06T07:38:37.882Z,35.00
2019-04-06T07:41:07.490Z,33.57
2019-04-06T07:43:37.290Z,34.13
2019-04-06T07:46:07.379Z,34.37
2019-04-06T07:48:37.191Z,33.20
2019-04-06T07:51:06.915Z,36.03
2019-04-06T07:53:39.056Z,33.30
2019-04-06T07:56:08.797Z,34.50
2019-04-06T07:58:48.009Z,34.20
2019-04-06T08:01:09.949Z,34.13
2019-04-06T08:03:40.025Z,36.20
2019-04-06T08:06:10.590Z,35.07
2019-04-06T08:08:43.257Z,33.27
2019-04-06T08:11:16.585Z,33.17
2019-04-06T08:13:50.356Z,32.70
2019-04-06T08:16:23.784Z,33.37
2019-04-06T08:18:59.818Z,33.77
2019-04-06T08:21:30.305Z,34.33
2019-04-06T08:24:03.902Z,34.70
2019-04-06T08:26:35.916Z,34.70
2019-04-06T08:29:07.846Z,34.57
2019-04-06T08:31:37.961Z,32.70
2019-04-06T08:34:09.097Z,31.97
2019-04-06T08:36:39.215Z,32.00
2019-04-06T08:39:09.510Z,34.97
2019-04-06T08:41:39.339Z,34.10
2019-04-06T08:44:14.113Z,34.43
2019-04-06T08:46:44.257Z,34.13
2019-04-06T08:49:14.126Z,34.30
2019-04-06T08:51:44.184Z,32.80
2019-04-06T08:54:14.031Z,34.77
2019-04-06T08:56:44.197Z,32.70
2019-04-06T08:59:14.177Z,32.37
2019-04-06T09:01:43.980Z,34.57
2019-04-06T09:04:14.014Z,32.70
2019-04-06T09:06:44.058Z,34.17
2019-04-06T09:09:13.834Z,32.13
2019-04-06T09:11:43.624Z,34.60
2019-04-06T09:14:13.950Z,33.70
2019-04-06T09:16:43.766Z,34.17
2019-04-06T09:19:13.918Z,35.33
2019-04-06T09:21:43.833Z,32.83
2019-04-06T09:24:13.959Z,34.00
2019-04-06T09:26:43.890Z,34.67
2019-04-06T09:29:23.022Z,33.80
2019-04-06T09:31:45.694Z,30.47
2019-04-06T09:34:15.853Z,33.30
2019-04-06T09:36:45.894Z,34.37
2019-04-06T09:39:15.690Z,34.80
2019-04-06T09:41:45.710Z,34.10
2019-04-06T09:44:33.045Z,33.83
2019-04-06T09:47:07.306Z,33.77
2019-04-06T09:50:02.274Z,35.30
2019-04-06T09:52:50.645Z,35.73
2019-04-06T09:55:26.959Z,32.93
2019-04-06T09:58:12.657Z,32.67
2019-04-06T10:00:58.426Z,32.60
2019-04-06T10:03:42.630Z,33.00
2019-04-06T10:06:32.454Z,33.37
2019-04-06T10:09:28.916Z,34.27
2019-04-06T10:12:19.907Z,34.53
2019-04-06T10:15:08.656Z,34.77
2019-04-06T10:18:06.518Z,34.57
2019-04-06T10:20:58.116Z,33.90
2019-04-06T10:23:47.449Z,36.17
2019-04-06T10:26:39.238Z,36.53
2019-04-06T10:29:49.526Z,36.13
2019-04-06T10:32:33.150Z,34.20
2019-04-06T10:35:08.666Z,33.87
2019-04-06T10:38:03.940Z,34.50
2019-04-06T10:40:51.565Z,33.73
2019-04-06T10:43:36.298Z,35.47
2019-04-06T10:46:25.187Z,35.33
2019-04-06T10:49:01.603Z,35.90
2019-04-06T10:51:45.461Z,32.37
2019-04-06T10:54:38.872Z,35.37
2019-04-06T10:57:25.980Z,34.70
2019-04-06T11:00:10.696Z,34.07
2019-04-06T11:03:14.714Z,36.73
2019-04-06T11:06:01.781Z,34.43
2019-04-06T11:08:40.330Z,34.40
2019-04-06T11:11:27.744Z,34.70
2019-04-06T11:14:14.841Z,36.07
2019-04-06T11:17:06.690Z,34.50
2019-04-06T11:19:54.457Z,34.23
2019-04-06T11:22:41.729Z,34.33
2019-04-06T11:25:30.785Z,34.50
2019-04-06T11:28:15.455Z,34.93
2019-04-06T11:31:06.847Z,34.60
2019-04-06T11:34:11.082Z,34.83
2019-04-06T11:37:00.650Z,33.93
2019-04-06T11:39:55.365Z,34.30
2019-04-06T11:42:50.129Z,31.67
2019-04-06T11:45:35.426Z,32.57
2019-04-06T11:48:30.573Z,33.47
2019-04-06T11:51:19.694Z,33.73
2019-04-06T11:54:14.301Z,33.80
2019-04-06T11:57:06.022Z,32.90
2019-04-06T12:00:07.595Z,33.30
2019-04-06T12:02:55.011Z,33.30
2019-04-06T12:05:50.206Z,31.93
2019-04-06T12:08:38.857Z,33.00
2019-04-06T12:11:27.814Z,32.67
2019-04-06T12:14:10.478Z,31.57
2019-04-06T12:17:05.852Z,31.73
2019-04-06T12:20:00.015Z,31.83
2019-04-06T12:22:50.087Z,32.83
2019-04-06T12:25:54.664Z,28.87
2019-04-06T12:28:52.960Z,28.40
2019-04-06T12:31:28.818Z,29.43
2019-04-06T12:34:24.622Z,30.70
2019-04-06T12:37:20.977Z,27.73
2019-04-06T12:40:14.107Z,31.70
2019-04-06T12:43:58.818Z,32.70
2019-04-06T12:46:50.948Z,32.10
2019-04-06T12:49:49.364Z,31.43
2019-04-06T12:52:47.056Z,32.80
2019-04-06T12:55:34.510Z,30.70
2019-04-06T12:58:38.459Z,30.87
2019-04-06T13:01:27.132Z,30.93
2019-04-06T13:04:14.212Z,30.53
2019-04-06T13:07:15.143Z,28.97
2019-04-06T13:10:02.576Z,29.67
2019-04-06T13:13:03.456Z,30.57
2019-04-06T13:15:48.029Z,29.07
2019-04-06T13:18:38.222Z,26.07
2019-04-06T13:21:39.046Z,24.50
2019-04-06T13:24:14.867Z,26.13
2019-04-06T13:27:08.943Z,27.00
2019-04-06T13:29:49.074Z,24.77
2019-04-06T13:32:49.786Z,25.50
2019-04-06T13:35:34.930Z,26.57
2019-04-06T13:38:22.127Z,25.87
2019-04-06T13:41:13.850Z,25.13
2019-04-06T13:43:58.061Z,24.30
2019-04-06T13:46:57.307Z,25.50
2019-04-06T13:49:51.033Z,24.73
2019-04-06T13:52:42.827Z,24.53
2019-04-06T13:55:35.098Z,22.87
2019-04-06T13:58:24.534Z,24.00
2019-04-06T14:01:17.382Z,22.67
2019-04-06T14:03:56.788Z,24.77
2019-04-06T14:06:52.003Z,22.80
2019-04-06T14:09:43.681Z,24.90
2019-04-06T14:12:32.865Z,23.53
2019-04-06T14:15:27.449Z,23.90
2019-04-06T14:18:25.534Z,24.27
2019-04-06T14:21:12.829Z,24.33
2019-04-06T14:23:57.861Z,23.13
2019-04-06T14:26:46.282Z,21.60
2019-04-06T14:29:29.669Z,22.37
2019-04-06T14:32:28.841Z,21.90
2019-04-06T14:35:23.816Z,20.77
2019-04-06T14:38:15.737Z,21.13
2019-04-06T14:41:16.336Z,21.83
2019-04-06T14:43:54.127Z,22.20
2019-04-06T14:46:36.478Z,21.30
2019-04-06T14:49:30.681Z,20.20
2019-04-06T14:52:12.443Z,20.50
2019-04-06T14:55:06.970Z,19.07
2019-04-06T14:57:54.577Z,18.70
2019-04-06T15:00:53.150Z,18.23
2019-04-06T15:03:38.374Z,19.57
2019-04-06T15:06:36.140Z,21.33
2019-04-06T15:09:27.605Z,23.93
2019-04-06T15:12:14.806Z,21.90
2019-04-06T15:15:02.343Z,22.77
2019-04-06T15:17:55.782Z,22.97
2019-04-06T15:20:32.022Z,21.77
2019-04-06T15:23:19.003Z,23.10
2019-04-06T15:26:23.189Z,22.17
2019-04-06T15:29:17.177Z,21.13
2019-04-06T15:32:06.517Z,22.27
2019-04-06T15:34:46.024Z,20.97
2019-04-06T15:37:39.159Z,21.63
2019-04-06T15:40:41.394Z,21.30
2019-04-06T15:43:39.771Z,21.83
2019-04-06T15:46:20.863Z,20.70
2019-04-06T15:49:19.115Z,19.40
2019-04-06T15:52:13.345Z,19.63
2019-04-06T15:54:49.176Z,18.40
2019-04-06T15:57:41.034Z,20.00
2019-04-06T16:00:45.214Z,17.07
2019-04-06T16:03:32.684Z,18.60
2019-04-06T16:06:12.552Z,18.50
2019-04-06T16:08:49.512Z,17.23
2019-04-06T16:11:41.988Z,18.53
2019-04-06T16:14:31.881Z,17.40
2019-04-06T16:17:27.380Z,17.57
2019-04-06T16:20:16.185Z,20.33
2019-04-06T16:23:03.737Z,20.53
2019-04-06T16:25:58.751Z,21.10
2019-04-06T16:28:46.558Z,19.83
2019-04-06T16:31:32.996Z,19.60
2019-04-06T16:34:14.199Z,18.70
2019-04-06T16:37:03.506Z,20.00
2019-04-06T16:39:50.973Z,21.80
2019-04-06T16:42:34.683Z,21.80
2019-04-06T16:45:21.633Z,19.90
2019-04-06T16:48:10.588Z,21.20
2019-04-06T16:50:58.007Z,21.90
2019-04-06T16:53:53.177Z,21.00
2019-04-06T16:56:43.626Z,21.93
2019-04-06T16:59:32.782Z,20.37
2019-04-06T17:02:25.541Z,19.93
2019-04-06T17:05:17.064Z,21.13
2019-04-06T17:08:11.162Z,19.27
2019-04-06T17:10:45.472Z,19.40
2019-04-06T17:13:27.304Z,19.60
2019-04-06T17:16:19.049Z,18.60
2019-04-06T17:19:15.816Z,18.50
2019-04-06T17:21:53.937Z,17.30
2019-04-06T17:24:40.159Z,17.63
2019-04-06T17:27:16.842Z,16.67
2019-04-06T17:30:21.660Z,18.20
2019-04-06T17:33:18.582Z,17.70
2019-04-06T17:36:10.183Z,17.70
2019-04-06T17:38:59.130Z,18.20
2019-04-06T17:41:53.630Z,18.07
2019-04-06T17:44:54.060Z,19.10
2019-04-06T17:47:41.517Z,17.67
2019-04-06T17:50:21.216Z,17.53
2019-04-06T17:53:13.541Z,16.20
2019-04-06T17:56:01.169Z,16.73
2019-04-06T17:58:49.937Z,17.00
2019-04-06T18:01:44.797Z,18.90
2019-04-06T18:04:33.883Z,16.57
2019-04-06T18:07:24.242Z,18.10
2019-04-06T18:10:20.813Z,18.53
2019-04-06T18:13:18.701Z,18.00
2019-04-06T18:15:48.606Z,18.37
2019-04-06T18:18:18.293Z,18.70
2019-04-06T18:20:48.387Z,17.27
2019-04-06T18:23:18.745Z,18.00
2019-04-06T18:25:48.549Z,18.90
2019-04-06T18:28:19.745Z,19.13
2019-04-06T18:30:56.043Z,20.43
2019-04-06T18:33:26.144Z,18.90
2019-04-06T18:35:55.910Z,19.43
2019-04-06T18:38:30.302Z,18.40
2019-04-06T18:41:00.539Z,19.47
2019-04-06T18:43:30.643Z,19.30
2019-04-06T18:46:01.221Z,18.80
2019-04-06T18:48:31.614Z,18.57
2019-04-06T18:51:01.534Z,19.67
2019-04-06T18:53:31.328Z,20.23
2019-04-06T18:56:01.037Z,17.90
2019-04-06T18:58:31.108Z,19.33
2019-04-06T19:01:00.870Z,19.40
2019-04-06T19:03:32.522Z,18.00
2019-04-06T19:06:02.497Z,19.33
2019-04-06T19:08:32.357Z,18.87
2019-04-06T19:11:02.108Z,20.47
2019-04-06T19:13:32.294Z,18.87
2019-04-06T19:16:02.134Z,19.20
2019-04-06T19:18:31.902Z,18.90
2019-04-06T19:21:01.841Z,19.90
2019-04-06T19:23:31.644Z,19.37
2019-04-06T19:26:01.938Z,20.33
2019-04-06T19:28:32.277Z,19.67
2019-04-06T19:31:02.156Z,19.73
2019-04-06T19:33:31.890Z,19.43
2019-04-06T19:36:02.150Z,21.10
2019-04-06T19:38:32.550Z,20.63
2019-04-06T19:41:02.307Z,20.77
2019-04-06T19:43:34.571Z,19.53
2019-04-06T19:46:04.493Z,20.67
2019-04-06T19:48:34.787Z,17.67
2019-04-06T19:51:04.769Z,19.27
2019-04-06T19:53:34.597Z,19.03
2019-04-06T19:56:04.616Z,20.00
2019-04-06T19:58:35.854Z,22.70
2019-04-06T20:01:05.907Z,21.47
2019-04-06T20:03:37.991Z,21.07
2019-04-06T20:06:08.908Z,21.87
2019-04-06T20:08:38.862Z,23.83
2019-04-06T20:11:08.874Z,22.87
2019-04-06T20:13:38.840Z,21.73
2019-04-06T20:16:08.870Z,22.27
2019-04-06T20:18:38.989Z,22.73
2019-04-06T20:21:08.942Z,22.43
2019-04-06T20:23:39.051Z,21.47
2019-04-06T20:26:09.139Z,21.77
2019-04-06T20:28:39.089Z,24.77
2019-04-06T20:31:09.275Z,25.33
2019-04-06T20:33:48.149Z,25.47
2019-04-06T20:36:10.697Z,23.77
2019-04-06T20:38:40.676Z,25.60
2019-04-06T20:41:10.935Z,26.23
2019-04-06T20:43:40.716Z,25.20
2019-04-06T20:46:10.741Z,27.37
2019-04-06T20:48:40.495Z,27.47
2019-04-06T20:51:11.081Z,27.13
2019-04-06T20:53:40.798Z,26.90
2019-04-06T20:56:10.730Z,26.47
2019-04-06T20:58:40.630Z,27.47
2019-04-06T21:01:11.150Z,25.00
2019-04-06T21:03:41.467Z,27.33
2019-04-06T21:06:11.395Z,26.93
2019-04-06T21:08:41.238Z,25.80
2019-04-06T21:11:11.144Z,26.13
2019-04-06T21:13:42.311Z,25.90
2019-04-06T21:16:12.535Z,26.73
2019-04-06T21:18:42.259Z,23.80
2019-04-06T21:21:12.062Z,25.20
2019-04-06T21:23:41.917Z,24.33
2019-04-06T21:26:11.765Z,25.03
2019-04-06T21:28:42.117Z,24.83
2019-04-06T21:31:12.145Z,25.60
2019-04-06T21:33:44.995Z,23.30
2019-04-06T21:36:14.134Z,24.50
2019-04-06T21:38:44.412Z,23.53
2019-04-06T21:41:14.960Z,25.63
2019-04-06T21:43:45.689Z,23.93
2019-04-06T21:46:15.832Z,24.37
2019-04-06T21:48:45.758Z,24.70
2019-04-06T21:51:15.901Z,26.90
2019-04-06T21:53:46.629Z,24.00
2019-04-06T21:56:16.857Z,26.37
2019-04-06T21:58:47.469Z,25.70
2019-04-06T22:01:18.513Z,26.57
2019-04-06T22:03:48.431Z,26.67
2019-04-06T22:06:18.460Z,26.03
2019-04-06T22:08:48.182Z,25.20
2019-04-06T22:11:17.893Z,24.97
2019-04-06T22:13:48.673Z,27.30
2019-04-06T22:16:18.814Z,26.30
2019-04-06T22:18:48.770Z,27.07
2019-04-06T22:21:18.938Z,25.90
2019-04-06T22:23:48.761Z,25.80
2019-04-06T22:26:18.484Z,25.50
2019-04-06T22:28:48.397Z,27.47
2019-04-06T22:31:18.515Z,24.93
2019-04-06T22:33:48.255Z,26.53
2019-04-06T22:36:18.904Z,27.57
2019-04-06T22:38:49.186Z,27.67
2019-04-06T22:41:19.437Z,26.93
2019-04-06T22:43:49.670Z,27.77
2019-04-06T22:46:20.215Z,25.70
2019-04-06T22:48:49.985Z,26.00
2019-04-06T22:51:20.741Z,25.90
2019-04-06T22:53:50.922Z,26.50
2019-04-06T22:56:20.703Z,27.23
2019-04-06T22:58:50.516Z,24.97
2019-04-06T23:01:21.230Z,25.60
2019-04-06T23:04:07.590Z,25.30
2019-04-06T23:06:41.563Z,26.33
2019-04-06T23:09:12.245Z,24.97
2019-04-06T23:11:42.019Z,23.80
2019-04-06T23:14:12.447Z,25.53
2019-04-06T23:16:42.786Z,24.33
2019-04-06T23:19:13.068Z,25.30
2019-04-06T23:21:42.926Z,23.30
2019-04-06T23:24:12.817Z,24.57
2019-04-06T23:26:42.659Z,24.80
2019-04-06T23:29:12.403Z,24.00
2019-04-06T23:31:42.826Z,24.80
2019-04-06T23:34:12.638Z,25.33
2019-04-06T23:36:42.823Z,25.67
2019-04-06T23:39:12.745Z,26.43
2019-04-06T23:41:42.697Z,25.40
2019-04-06T23:44:13.397Z,25.10
2019-04-06T23:46:43.667Z,23.87
2019-04-06T23:49:13.428Z,24.87
2019-04-06T23:51:43.220Z,24.13
2019-04-06T23:54:13.530Z,24.20
2019-04-06T23:56:43.378Z,24.73
2019-04-06T23:59:13.103Z,23.40
